Wetterdaten: Woche 14.05.18 - 20.05.18 (KW20)
Datum Zeit Temp. A. Feuchte A. Luftdruck Regen Wind Richtung Taupunkt Windchill Windben
14.05.2018 00:00 15,7 C 77 % 1008,0 hPa 0,0 l/m 0,0 km/h N 11,8 C 15,7 C 0,0 km/h
14.05.2018 01:00 14,8 C 79 % 1007,8 hPa 0,0 l/m 0,0 km/h N 11,3 C 14,8 C 0,0 km/h
14.05.2018 02:00 14,0 C 81 % 1007,6 hPa 0,0 l/m 0,0 km/h N 10,7 C 14,0 C 0,0 km/h
14.05.2018 03:00 13,1 C 81 % 1007,7 hPa 0,0 l/m 0,0 km/h N 9,9 C 13,1 C 0,0 km/h
14.05.2018 04:00 12,7 C 81 % 1007,8 hPa 0,0 l/m 0,0 km/h N 9,5 C 12,7 C 0,4 km/h
14.05.2018 05:00 12,8 C 82 % 1008,2 hPa 0,0 l/m 0,0 km/h N 9,7 C 12,8 C 0,0 km/h
14.05.2018 06:00 12,8 C 82 % 1008,9 hPa 0,0 l/m 0,0 km/h N 9,8 C 12,8 C 0,4 km/h
14.05.2018 07:00 14,3 C 78 % 1009,4 hPa 0,0 l/m 0,2 km/h N 10,5 C 14,3 C 2,8 km/h
14.05.2018 08:00 16,9 C 66 % 1009,7 hPa 0,0 l/m 1,0 km/h N 10,5 C 16,9 C 7,2 km/h
14.05.2018 09:00 18,7 C 60 % 1009,9 hPa 0,0 l/m 1,2 km/h N 10,7 C 18,7 C 7,2 km/h
14.05.2018 10:00 20,0 C 57 % 1010,0 hPa 0,0 l/m 2,8 km/h N 11,2 C 20,0 C 10,4 km/h
14.05.2018 11:00 20,3 C 56 % 1010,2 hPa 0,0 l/m 3,8 km/h N 11,2 C 20,3 C 16,1 km/h
14.05.2018 12:00 19,0 C 59 % 1010,6 hPa 0,0 l/m 3,3 km/h N 10,8 C 19,0 C 13,7 km/h
14.05.2018 13:00 18,7 C 61 % 1010,8 hPa 0,0 l/m 2,4 km/h N 10,9 C 18,7 C 10,5 km/h
14.05.2018 14:00 19,4 C 59 % 1010,6 hPa 0,0 l/m 2,2 km/h N 11,2 C 19,4 C 12,5 km/h
14.05.2018 15:00 19,0 C 61 % 1010,4 hPa 0,0 l/m 1,8 km/h N 11,1 C 19,0 C 10,4 km/h
14.05.2018 16:00 18,9 C 61 % 1010,1 hPa 0,0 l/m 1,6 km/h N 11,1 C 18,9 C 10,1 km/h
14.05.2018 17:00 18,3 C 62 % 1010,0 hPa 0,0 l/m 1,1 km/h N 10,7 C 18,3 C 8,4 km/h
14.05.2018 18:00 17,9 C 62 % 1009,9 hPa 0,0 l/m 0,3 km/h N 10,6 C 17,9 C 5,6 km/h
14.05.2018 19:00 17,6 C 65 % 1009,7 hPa 0,0 l/m 0,1 km/h N 11,0 C 17,6 C 2,4 km/h
14.05.2018 20:00 16,9 C 69 % 1009,6 hPa 0,0 l/m 0,0 km/h N 11,2 C 16,9 C 0,4 km/h
14.05.2018 21:00 16,0 C 73 % 1009,8 hPa 0,0 l/m 0,0 km/h N 11,1 C 16,0 C 0,4 km/h
14.05.2018 22:00 15,0 C 76 % 1009,9 hPa 0,0 l/m 0,0 km/h N 10,8 C 15,0 C 0,0 km/h
14.05.2018 23:00 14,5 C 78 % 1009,9 hPa 0,0 l/m 0,0 km/h N 10,7 C 14,5 C 0,4 km/h
15.05.2018 00:00 14,5 C 79 % 1009,8 hPa 0,0 l/m 0,2 km/h N 10,9 C 14,5 C 4,0 km/h
15.05.2018 01:00 14,1 C 79 % 1009,6 hPa 0,3 l/m 0,6 km/h N 10,5 C 14,1 C 6,8 km/h
15.05.2018 02:00 13,3 C 80 % 1009,8 hPa 2,6 l/m 0,2 km/h N 9,9 C 13,3 C 2,8 km/h
15.05.2018 03:00 12,4 C 81 % 1009,7 hPa 2,1 l/m 0,0 km/h N 9,3 C 12,4 C 0,4 km/h
15.05.2018 04:00 12,1 C 82 % 1009,5 hPa 1,3 l/m 0,0 km/h N 9,1 C 12,1 C 0,0 km/h
15.05.2018 05:00 12,2 C 82 % 1009,2 hPa 2,3 l/m 0,0 km/h N 9,2 C 12,2 C 0,8 km/h
15.05.2018 06:00 11,9 C 82 % 1009,3 hPa 2,3 l/m 0,0 km/h N 9,0 C 11,9 C 2,0 km/h
15.05.2018 07:00 11,8 C 82 % 1009,5 hPa 2,1 l/m 0,0 km/h N 8,8 C 11,8 C 0,4 km/h
15.05.2018 08:00 11,7 C 82 % 1009,6 hPa 1,8 l/m 0,0 km/h N 8,7 C 11,7 C 0,8 km/h
15.05.2018 09:00 11,8 C 82 % 1009,9 hPa 1,8 l/m 0,2 km/h N 8,8 C 11,8 C 4,4 km/h
15.05.2018 10:00 11,7 C 82 % 1010,1 hPa 1,8 l/m 0,3 km/h N 8,8 C 11,7 C 5,6 km/h
15.05.2018 11:00 11,7 C 82 % 1010,3 hPa 2,1 l/m 0,4 km/h N 8,7 C 11,7 C 5,2 km/h
15.05.2018 12:00 12,0 C 83 % 1010,1 hPa 1,8 l/m 1,9 km/h N 9,1 C 12,0 C 7,6 km/h
15.05.2018 13:00 12,2 C 82 % 1010,1 hPa 1,3 l/m 2,0 km/h N 9,3 C 12,2 C 8,1 km/h
15.05.2018 14:00 11,9 C 82 % 1010,2 hPa 1,3 l/m 1,6 km/h N 8,9 C 11,9 C 7,6 km/h
15.05.2018 15:00 11,9 C 82 % 1010,4 hPa 1,3 l/m 1,0 km/h N 8,9 C 11,9 C 5,2 km/h
15.05.2018 16:00 12,0 C 82 % 1010,4 hPa 0,5 l/m 1,1 km/h N 9,1 C 12,0 C 7,2 km/h
15.05.2018 17:00 11,9 C 82 % 1010,5 hPa 0,0 l/m 1,1 km/h N 8,9 C 11,9 C 5,6 km/h
15.05.2018 18:00 11,9 C 82 % 1010,2 hPa 0,0 l/m 1,6 km/h N 8,9 C 11,9 C 7,6 km/h
15.05.2018 19:00 11,8 C 82 % 1010,0 hPa 0,0 l/m 1,9 km/h N 8,8 C 11,8 C 7,6 km/h
15.05.2018 20:00 11,4 C 82 % 1009,8 hPa 0,0 l/m 0,0 km/h N 8,5 C 11,4 C 1,2 km/h
15.05.2018 21:00 10,7 C 82 % 1010,2 hPa 0,0 l/m 0,0 km/h N 7,8 C 10,7 C 0,0 km/h
15.05.2018 22:00 10,2 C 82 % 1010,5 hPa 0,0 l/m 0,0 km/h N 7,3 C 10,2 C 1,2 km/h
15.05.2018 23:00 10,2 C 82 % 1010,7 hPa 0,0 l/m 0,0 km/h N 7,3 C 10,2 C 0,0 km/h
16.05.2018 00:00 10,5 C 82 % 1010,5 hPa 0,0 l/m 0,1 km/h N 7,6 C 10,5 C 2,8 km/h
16.05.2018 01:00 10,7 C 82 % 1010,3 hPa 0,0 l/m 0,0 km/h N 7,8 C 10,7 C 0,0 km/h
16.05.2018 02:00 10,8 C 82 % 1010,2 hPa 0,0 l/m 0,3 km/h N 7,9 C 10,8 C 4,0 km/h
16.05.2018 03:00 10,9 C 82 % 1010,2 hPa 0,0 l/m 0,0 km/h N 7,9 C 10,9 C 0,4 km/h
16.05.2018 04:00 10,8 C 82 % 1009,8 hPa 0,5 l/m 0,0 km/h N 7,9 C 10,8 C 0,0 km/h
16.05.2018 05:00 10,6 C 82 % 1009,9 hPa 0,0 l/m 0,0 km/h N 7,8 C 10,6 C 0,0 km/h
16.05.2018 06:00 10,9 C 83 % 1009,7 hPa 0,0 l/m 0,1 km/h N 8,1 C 10,9 C 1,6 km/h
16.05.2018 07:00 12,0 C 83 % 1009,3 hPa 0,0 l/m 3,0 km/h N 9,1 C 12,0 C 13,7 km/h
16.05.2018 08:00 13,0 C 81 % 1009,7 hPa 0,0 l/m 2,2 km/h N 9,9 C 13,0 C 11,7 km/h
16.05.2018 09:00 14,3 C 78 % 1009,9 hPa 0,0 l/m 4,6 km/h N 10,4 C 13,8 C 19,7 km/h
16.05.2018 10:00 15,6 C 75 % 1010,0 hPa 0,0 l/m 4,8 km/h N 11,2 C 15,6 C 19,7 km/h
16.05.2018 11:00 16,4 C 72 % 1010,2 hPa 0,0 l/m 3,6 km/h N 11,3 C 16,4 C 17,7 km/h
16.05.2018 12:00 18,0 C 67 % 1010,2 hPa 0,0 l/m 2,5 km/h N 11,7 C 18,0 C 14,9 km/h
16.05.2018 13:00 17,6 C 65 % 1010,2 hPa 0,0 l/m 6,0 km/h N 10,8 C 17,5 C 19,3 km/h
16.05.2018 14:00 18,1 C 62 % 1010,1 hPa 0,0 l/m 6,3 km/h N 10,7 C 17,7 C 21,7 km/h
16.05.2018 15:00 18,1 C 61 % 1010,2 hPa 0,0 l/m 7,3 km/h N 10,4 C 17,5 C 20,5 km/h
16.05.2018 16:00 16,9 C 65 % 1010,3 hPa 0,0 l/m 5,4 km/h N 10,2 C 16,9 C 18,5 km/h
16.05.2018 17:00 17,0 C 65 % 1010,3 hPa 0,0 l/m 6,1 km/h N 10,4 C 16,8 C 21,3 km/h
16.05.2018 18:00 17,1 C 66 % 1010,0 hPa 0,0 l/m 5,2 km/h N 10,7 C 16,9 C 21,7 km/h
16.05.2018 19:00 17,5 C 63 % 1010,1 hPa 0,0 l/m 4,3 km/h N 10,2 C 17,5 C 18,9 km/h
16.05.2018 20:00 16,0 C 65 % 1010,7 hPa 0,0 l/m 3,3 km/h N 9,4 C 16,0 C 16,5 km/h
16.05.2018 21:00 14,7 C 70 % 1011,1 hPa 0,0 l/m 0,3 km/h N 9,3 C 14,7 C 5,6 km/h
16.05.2018 22:00 14,2 C 72 % 1011,4 hPa 0,0 l/m 0,6 km/h N 9,1 C 14,2 C 8,0 km/h
16.05.2018 23:00 14,2 C 71 % 1011,6 hPa 0,0 l/m 2,2 km/h N 9,1 C 14,2 C 15,7 km/h
17.05.2018 00:00 14,2 C 72 % 1011,5 hPa 0,0 l/m 1,7 km/h N 9,1 C 14,2 C 14,9 km/h
17.05.2018 01:00 13,7 C 74 % 1011,4 hPa 0,0 l/m 0,5 km/h N 9,1 C 13,7 C 7,3 km/h
17.05.2018 02:00 13,4 C 75 % 1011,1 hPa 0,0 l/m 0,2 km/h N 9,1 C 13,4 C 4,8 km/h
17.05.2018 03:00 13,3 C 75 % 1010,9 hPa 0,0 l/m 0,8 km/h N 9,0 C 13,3 C 7,3 km/h
17.05.2018 04:00 12,8 C 77 % 1010,8 hPa 0,0 l/m 2,0 km/h N 8,8 C 12,8 C 12,9 km/h
17.05.2018 05:00 13,1 C 76 % 1011,0 hPa 0,0 l/m 8,1 km/h N 9,0 C 12,1 C 22,1 km/h
17.05.2018 06:00 13,5 C 76 % 1011,1 hPa 0,0 l/m 6,9 km/h N 9,3 C 13,2 C 21,3 km/h
17.05.2018 07:00 14,1 C 74 % 1011,3 hPa 0,0 l/m 6,8 km/h N 9,4 C 13,8 C 22,9 km/h
17.05.2018 08:00 14,5 C 73 % 1011,8 hPa 0,0 l/m 8,1 km/h N 9,8 C 13,6 C 26,5 km/h
17.05.2018 09:00 15,0 C 73 % 1012,0 hPa 0,0 l/m 7,8 km/h N 10,1 C 14,1 C 26,5 km/h
17.05.2018 10:00 15,3 C 72 % 1012,1 hPa 0,0 l/m 7,3 km/h N 10,3 C 14,5 C 28,2 km/h
17.05.2018 11:00 15,4 C 73 % 1012,5 hPa 0,0 l/m 6,3 km/h N 10,5 C 15,0 C 23,3 km/h
17.05.2018 12:00 15,8 C 73 % 1012,8 hPa 0,0 l/m 3,8 km/h N 11,0 C 15,8 C 20,1 km/h
17.05.2018 13:00 14,9 C 78 % 1013,1 hPa 0,0 l/m 4,5 km/h N 11,0 C 14,9 C 20,9 km/h
17.05.2018 14:00 15,0 C 78 % 1013,0 hPa 0,0 l/m 6,2 km/h N 11,2 C 14,6 C 24,1 km/h
17.05.2018 15:00 15,7 C 76 % 1012,9 hPa 0,0 l/m 7,5 km/h N 11,5 C 15,0 C 26,2 km/h
17.05.2018 16:00 15,8 C 76 % 1012,8 hPa 0,0 l/m 7,9 km/h N 11,5 C 15,0 C 29,8 km/h
17.05.2018 17:00 16,0 C 74 % 1012,7 hPa 0,0 l/m 8,6 km/h N 11,4 C 14,8 C 31,8 km/h
17.05.2018 18:00 15,9 C 74 % 1012,7 hPa 0,0 l/m 7,1 km/h N 11,3 C 15,1 C 22,5 km/h
17.05.2018 19:00 15,6 C 75 % 1012,9 hPa 0,0 l/m 5,3 km/h N 11,2 C 15,6 C 23,7 km/h
17.05.2018 20:00 15,7 C 74 % 1012,8 hPa 0,0 l/m 4,6 km/h N 11,1 C 15,7 C 24,1 km/h
17.05.2018 21:00 15,9 C 74 % 1013,5 hPa 0,0 l/m 5,8 km/h N 11,2 C 15,9 C 23,3 km/h
17.05.2018 22:00 15,9 C 74 % 1014,0 hPa 0,0 l/m 6,9 km/h N 11,3 C 15,5 C 23,3 km/h
17.05.2018 23:00 15,6 C 75 % 1014,2 hPa 0,0 l/m 4,1 km/h N 11,2 C 15,6 C 18,9 km/h
18.05.2018 00:00 15,3 C 76 % 1014,3 hPa 0,0 l/m 4,8 km/h N 11,1 C 15,3 C 18,5 km/h
18.05.2018 01:00 15,0 C 76 % 1014,3 hPa 0,0 l/m 3,3 km/h N 10,9 C 15,0 C 17,3 km/h
18.05.2018 02:00 14,9 C 77 % 1014,3 hPa 0,0 l/m 5,2 km/h N 10,9 C 14,9 C 18,9 km/h
18.05.2018 03:00 14,8 C 77 % 1014,2 hPa 0,0 l/m 5,4 km/h N 10,9 C 14,8 C 20,5 km/h
18.05.2018 04:00 14,6 C 78 % 1014,4 hPa 0,0 l/m 6,7 km/h N 10,8 C 14,0 C 22,9 km/h
18.05.2018 05:00 14,4 C 78 % 1014,6 hPa 0,0 l/m 6,6 km/h N 10,5 C 14,1 C 21,7 km/h
18.05.2018 06:00 14,4 C 78 % 1015,0 hPa 0,0 l/m 6,3 km/h N 10,6 C 14,0 C 20,9 km/h
18.05.2018 07:00 14,5 C 79 % 1015,2 hPa 0,0 l/m 4,7 km/h N 10,9 C 14,5 C 17,7 km/h
18.05.2018 08:00 15,7 C 76 % 1015,3 hPa 0,0 l/m 7,4 km/h N 11,4 C 15,1 C 24,1 km/h
18.05.2018 09:00 16,6 C 72 % 1015,3 hPa 0,0 l/m 6,4 km/h N 11,5 C 16,4 C 24,2 km/h
18.05.2018 10:00 17,7 C 68 % 1015,5 hPa 0,0 l/m 8,9 km/h N 11,8 C 16,6 C 26,9 km/h
18.05.2018 11:00 18,3 C 67 % 1015,8 hPa 0,0 l/m 6,3 km/h N 12,1 C 18,1 C 24,9 km/h
18.05.2018 12:00 19,3 C 65 % 1015,9 hPa 0,0 l/m 7,1 km/h N 12,7 C 18,9 C 25,4 km/h
18.05.2018 13:00 20,4 C 64 % 1015,5 hPa 0,0 l/m 6,9 km/h N 13,3 C 20,1 C 24,9 km/h
18.05.2018 14:00 20,9 C 61 % 1015,2 hPa 0,0 l/m 7,4 km/h N 12,9 C 20,5 C 22,1 km/h
18.05.2018 15:00 20,9 C 60 % 1014,8 hPa 0,0 l/m 6,5 km/h N 12,9 C 20,8 C 23,3 km/h
18.05.2018 16:00 21,1 C 59 % 1014,4 hPa 0,0 l/m 6,1 km/h N 12,7 C 21,0 C 22,5 km/h
18.05.2018 17:00 21,2 C 58 % 1014,0 hPa 0,0 l/m 6,9 km/h N 12,6 C 20,9 C 21,7 km/h
18.05.2018 18:00 20,8 C 57 % 1014,2 hPa 0,0 l/m 8,5 km/h N 11,8 C 20,0 C 23,7 km/h
18.05.2018 19:00 18,5 C 60 % 1014,6 hPa 0,0 l/m 5,8 km/h N 10,6 C 18,1 C 16,5 km/h
18.05.2018 20:00 17,1 C 66 % 1015,0 hPa 0,0 l/m 1,9 km/h N 10,6 C 17,1 C 8,5 km/h
18.05.2018 21:00 16,7 C 63 % 1015,8 hPa 0,0 l/m 5,3 km/h N 9,7 C 16,4 C 18,5 km/h
18.05.2018 22:00 16,3 C 63 % 1016,2 hPa 0,0 l/m 2,1 km/h N 9,3 C 16,3 C 12,5 km/h
18.05.2018 23:00 16,5 C 63 % 1016,4 hPa 0,0 l/m 3,5 km/h N 9,3 C 16,5 C 14,1 km/h
19.05.2018 00:00 15,8 C 67 % 1016,7 hPa 0,0 l/m 2,5 km/h N 9,8 C 15,8 C 11,3 km/h
19.05.2018 01:00 14,7 C 73 % 1016,7 hPa 0,0 l/m 0,5 km/h N 9,9 C 14,7 C 6,4 km/h
19.05.2018 02:00 14,2 C 75 % 1016,7 hPa 0,0 l/m 0,8 km/h N 9,8 C 14,2 C 7,2 km/h
19.05.2018 03:00 13,2 C 78 % 1016,8 hPa 0,0 l/m 0,0 km/h N 9,4 C 13,2 C 0,4 km/h
19.05.2018 04:00 12,6 C 80 % 1016,8 hPa 0,0 l/m 0,5 km/h N 9,1 C 12,6 C 2,4 km/h
19.05.2018 05:00 12,9 C 81 % 1016,9 hPa 0,0 l/m 0,9 km/h N 9,7 C 12,9 C 4,8 km/h
19.05.2018 06:00 13,3 C 81 % 1017,4 hPa 0,0 l/m 1,5 km/h N 10,1 C 13,3 C 8,1 km/h
19.05.2018 07:00 14,4 C 80 % 1017,8 hPa 0,0 l/m 3,3 km/h N 11,1 C 14,4 C 11,3 km/h
19.05.2018 08:00 15,4 C 79 % 1018,0 hPa 0,0 l/m 3,1 km/h N 11,7 C 15,4 C 12,1 km/h
19.05.2018 09:00 16,4 C 75 % 1018,2 hPa 0,0 l/m 3,8 km/h N 11,9 C 16,4 C 11,7 km/h
19.05.2018 10:00 17,4 C 72 % 1018,4 hPa 0,0 l/m 4,1 km/h N 12,2 C 17,4 C 14,5 km/h
19.05.2018 11:00 18,4 C 69 % 1018,4 hPa 0,0 l/m 3,3 km/h N 12,6 C 18,4 C 12,5 km/h
19.05.2018 12:00 19,1 C 67 % 1018,3 hPa 0,0 l/m 3,8 km/h N 12,7 C 19,1 C 13,3 km/h
19.05.2018 13:00 20,0 C 64 % 1017,7 hPa 0,0 l/m 4,1 km/h N 13,0 C 20,0 C 15,3 km/h
19.05.2018 14:00 20,6 C 62 % 1017,1 hPa 0,0 l/m 3,4 km/h N 13,2 C 20,6 C 13,7 km/h
19.05.2018 15:00 21,0 C 60 % 1016,8 hPa 0,0 l/m 3,0 km/h N 12,8 C 21,0 C 13,3 km/h
19.05.2018 16:00 21,5 C 57 % 1016,3 hPa 0,0 l/m 2,8 km/h N 12,6 C 21,5 C 14,1 km/h
19.05.2018 17:00 21,5 C 55 % 1016,3 hPa 0,0 l/m 2,3 km/h N 12,1 C 21,5 C 12,5 km/h
19.05.2018 18:00 21,2 C 57 % 1016,3 hPa 0,0 l/m 1,9 km/h N 12,2 C 21,2 C 12,1 km/h
19.05.2018 19:00 20,2 C 60 % 1016,5 hPa 0,0 l/m 1,4 km/h N 12,1 C 20,2 C 9,3 km/h
19.05.2018 20:00 19,1 C 63 % 1017,1 hPa 0,0 l/m 1,0 km/h N 11,9 C 19,1 C 9,3 km/h
19.05.2018 21:00 17,7 C 68 % 1018,1 hPa 0,0 l/m 0,3 km/h N 11,6 C 17,7 C 4,8 km/h
19.05.2018 22:00 16,3 C 73 % 1018,8 hPa 0,0 l/m 0,9 km/h N 11,3 C 16,3 C 5,6 km/h
19.05.2018 23:00 15,1 C 75 % 1018,9 hPa 0,0 l/m 0,5 km/h N 10,7 C 15,1 C 5,2 km/h
20.05.2018 00:00 14,8 C 76 % 1019,0 hPa 0,0 l/m 0,9 km/h N 10,5 C 14,8 C 5,2 km/h
20.05.2018 01:00 14,1 C 76 % 1019,2 hPa 0,0 l/m 0,4 km/h N 9,8 C 14,1 C 4,0 km/h
20.05.2018 02:00 12,9 C 77 % 1019,4 hPa 0,0 l/m 0,4 km/h N 8,9 C 12,9 C 4,0 km/h
20.05.2018 03:00 12,6 C 75 % 1019,4 hPa 0,0 l/m 1,0 km/h N 8,3 C 12,6 C 5,6 km/h
20.05.2018 04:00 12,2 C 76 % 1019,7 hPa 0,0 l/m 0,5 km/h N 8,0 C 12,2 C 4,8 km/h
20.05.2018 05:00 11,0 C 78 % 1020,1 hPa 0,0 l/m 0,0 km/h N 7,3 C 11,0 C 0,8 km/h
20.05.2018 06:00 10,8 C 81 % 1020,4 hPa 0,0 l/m 0,2 km/h N 7,7 C 10,8 C 2,4 km/h
20.05.2018 07:00 12,6 C 79 % 1020,7 hPa 0,0 l/m 2,5 km/h N 9,0 C 12,6 C 8,4 km/h
20.05.2018 08:00 14,4 C 73 % 1020,8 hPa 0,0 l/m 3,8 km/h N 9,6 C 14,4 C 10,9 km/h
20.05.2018 09:00 16,1 C 68 % 1020,9 hPa 0,0 l/m 2,9 km/h N 10,1 C 16,1 C 8,4 km/h
20.05.2018 10:00 18,2 C 63 % 1020,7 hPa 0,0 l/m 1,3 km/h N 10,9 C 18,2 C 9,3 km/h
20.05.2018 11:00 20,0 C 59 % 1020,6 hPa 0,0 l/m 0,9 km/h N 11,8 C 20,0 C 8,8 km/h
20.05.2018 12:00 21,0 C 54 % 1020,6 hPa 0,0 l/m 1,1 km/h N 11,3 C 21,0 C 8,4 km/h
20.05.2018 13:00 22,2 C 52 % 1020,2 hPa 0,0 l/m 1,1 km/h N 11,7 C 22,2 C 7,6 km/h
20.05.2018 14:00 22,5 C 47 % 1019,8 hPa 0,0 l/m 2,3 km/h N 10,7 C 22,5 C 9,7 km/h
20.05.2018 15:00 21,8 C 46 % 1019,4 hPa 0,0 l/m 1,8 km/h N 9,5 C 21,8 C 10,5 km/h
20.05.2018 16:00 21,6 C 41 % 1018,9 hPa 0,0 l/m 0,7 km/h N 7,6 C 21,6 C 6,4 km/h
20.05.2018 17:00 21,6 C 40 % 1018,7 hPa 0,0 l/m 0,9 km/h N 7,3 C 21,6 C 6,4 km/h
20.05.2018 18:00 22,6 C 44 % 1018,5 hPa 0,0 l/m 0,2 km/h N 9,8 C 22,6 C 4,4 km/h
20.05.2018 19:00 22,8 C 46 % 1018,3 hPa 0,0 l/m 0,0 km/h N 10,6 C 22,8 C 0,8 km/h
20.05.2018 20:00 20,4 C 53 % 1018,5 hPa 0,0 l/m 0,0 km/h N 10,5 C 20,4 C 0,4 km/h
20.05.2018 21:00 17,1 C 62 % 1019,2 hPa 0,0 l/m 0,0 km/h N 9,7 C 17,1 C 1,2 km/h
20.05.2018 22:00 14,9 C 69 % 1019,4 hPa 0,0 l/m 0,4 km/h N 9,3 C 14,9 C 2,0 km/h
20.05.2018 23:00 13,9 C 73 % 1019,5 hPa 0,0 l/m 0,1 km/h N 9,0 C 13,9 C 2,0 km/h
Min-Datum _ 15.05.18 20.05.18 14.05.18 - 14.05.18 - 20.05.18 15.05.18 14.05.18
_ Min-Zeit 22:15 17:15 01:45 - 00:00 - 17:15 22:00 00:00
Minimum _ 10,2 C 38 % 1007,6 hPa - 0,0 km/h - 6,6 C 10,2 C 0,0 km/h
Max-Datum _ 20.05.18 15.05.18 20.05.18 15.05.18 18.05.18 - 18.05.18 20.05.18 17.05.18
_ Max-Zeit 18:45 10:15 08:30 02:30 10:45 - 13:45 18:45 17:45
Maximum _ 23,1 C 83 % 1020,9 hPa 2,6 l/m 11,0 km/h
N
- 13,5 C 23,1 C 35,4 km/h
N
Durchschnitt _ 15,6 C 71 % 1013,4 hPa #27,3 l/m 2,7 km/h N 10,3 C 15,5 C 11,1 km/h